Austonio, Texas
Current Conditions -  °F | °C
As of 5:15 PM on Monday 22 Dec 2014 (Local Time) from KDKR Reporting Station
Clear Clear  
Wind Chill: 66°   Ceiling: Unl
Heat Index: 66°   Visibility: NA
Dew Point: 57°   Wind: 0mph
Humidity: 73%   Direction: NA
Pressure: 29.62"   Gusts: NA
Location:  31.2828°N, 95.4821°W
Report Text: KDKR 222315Z AUTO 00000KT CLR 19/14 A2962 RMK AO2
Loading
Personal Weather Stations






























Interactive Weather Map New forecast layout! Learn more

10-Day Weather Forecast

Advertisements
Track Severe Weather on mobile